Time;durP1;ratioP1;P1;durP2;ratioP2;P2;SDS_P1;SDS_P2;PMS_P1;PMS_P2;Temp;Humidity;BMP_temperature;BMP_pressure;BME280_temperature;BME280_humidity;BME280_pressure;Samples;Min_cycle;Max_cycle;Signal;HPM_P1;HPM_P2
2022/04/24 00:01:11;;;;;;;17.60;15.70;;;10.00;99.90;;;;;;5084397;28;20218;-78
2022/04/24 00:03:39;;;;;;;19.47;16.10;;;10.00;99.90;;;;;;5083941;28;20624;-78
2022/04/24 00:06:06;;;;;;;17.57;15.70;;;10.00;99.90;;;;;;5082571;28;20194;-78
2022/04/24 00:08:33;;;;;;;16.77;14.43;;;10.00;99.90;;;;;;5085786;28;20673;-77
2022/04/24 00:11:00;;;;;;;16.63;14.27;;;10.00;99.90;;;;;;5089124;28;20194;-79
2022/04/24 00:13:31;;;;;;;15.80;13.70;;;10.00;99.90;;;;;;5099324;28;20218;-78
2022/04/24 00:15:58;;;;;;;13.90;12.40;;;10.00;99.90;;;;;;5091568;28;20186;-79
2022/04/24 00:18:24;;;;;;;16.83;13.17;;;10.00;99.90;;;;;;5085951;28;20279;-78
2022/04/24 00:20:52;;;;;;;17.30;14.53;;;10.00;99.90;;;;;;5084998;28;20194;-78
2022/04/24 00:23:19;;;;;;;14.67;12.93;;;10.00;99.90;;;;;;5075170;28;20210;-79
2022/04/24 00:25:46;;;;;;;16.23;12.97;;;9.90;99.90;;;;;;5085076;28;20651;-79
2022/04/24 00:28:13;;;;;;;16.20;12.77;;;10.00;99.90;;;;;;5079083;28;20269;-80
2022/04/24 00:30:40;;;;;;;16.27;12.70;;;10.00;99.90;;;;;;5078748;28;20182;-78
2022/04/24 00:33:07;;;;;;;16.83;13.47;;;10.00;99.90;;;;;;5090267;28;20206;-80
2022/04/24 00:35:34;;;;;;;15.60;12.43;;;10.00;99.90;;;;;;5077260;28;20229;-78
2022/04/24 00:38:02;;;;;;;13.67;11.23;;;10.00;99.90;;;;;;5079968;28;20197;-77
2022/04/24 00:40:29;;;;;;;13.50;11.03;;;10.00;99.90;;;;;;5058946;28;20626;-78
2022/04/24 00:42:56;;;;;;;15.87;12.87;;;10.00;99.90;;;;;;5081990;28;20248;-79
2022/04/24 00:45:23;;;;;;;15.97;12.03;;;10.10;99.90;;;;;;5081781;28;20205;-78
2022/04/24 00:47:50;;;;;;;16.60;12.93;;;10.00;99.90;;;;;;5083145;28;20286;-77
2022/04/24 00:50:18;;;;;;;15.27;12.50;;;10.00;99.90;;;;;;5068009;28;20191;-79
2022/04/24 00:52:47;;;;;;;15.63;12.47;;;10.00;99.90;;;;;;5067403;28;20252;-79
2022/04/24 00:55:16;;;;;;;16.37;13.13;;;10.00;99.90;;;;;;5069195;28;20669;-78
2022/04/24 00:57:43;;;;;;;14.97;12.63;;;10.00;99.90;;;;;;5074197;28;20213;-80
2022/04/24 01:00:11;;;;;;;14.73;12.10;;;10.00;99.90;;;;;;5082652;28;20229;-79
2022/04/24 01:02:39;;;;;;;13.93;12.07;;;10.00;99.90;;;;;;5074241;28;20201;-80
2022/04/24 01:05:08;;;;;;;16.30;12.20;;;9.90;99.90;;;;;;5079221;28;20194;-78
2022/04/24 01:07:35;;;;;;;15.17;12.23;;;10.00;99.90;;;;;;5084520;28;20251;-79
2022/04/24 01:10:02;;;;;;;15.77;12.47;;;10.00;99.90;;;;;;5082072;28;20288;-79
2022/04/24 01:12:30;;;;;;;14.73;11.77;;;10.00;99.90;;;;;;5078331;28;20205;-78
2022/04/24 01:14:57;;;;;;;15.70;12.47;;;10.00;99.90;;;;;;5082563;28;20706;-79
2022/04/24 01:17:24;;;;;;;19.00;14.17;;;10.00;99.90;;;;;;5084361;28;20211;-78
2022/04/24 01:19:52;;;;;;;14.53;12.27;;;10.00;99.90;;;;;;5082944;28;20710;-79
2022/04/24 01:22:20;;;;;;;13.00;10.43;;;10.00;99.90;;;;;;5082234;28;20505;-78
2022/04/24 01:24:47;;;;;;;15.50;12.57;;;10.10;99.90;;;;;;5076865;28;20217;-80
2022/04/24 01:27:14;;;;;;;14.20;11.10;;;10.00;99.90;;;;;;5070647;28;20203;-78
2022/04/24 01:29:41;;;;;;;11.00;9.30;;;10.00;99.90;;;;;;5081922;28;20204;-80
2022/04/24 01:32:09;;;;;;;14.40;11.43;;;10.10;99.90;;;;;;5081930;28;20261;-78
2022/04/24 01:34:36;;;;;;;15.30;12.37;;;10.00;99.90;;;;;;5090528;28;20213;-80
2022/04/24 01:37:03;;;;;;;16.43;13.27;;;10.00;99.90;;;;;;5082501;28;20206;-79
2022/04/24 01:39:31;;;;;;;16.70;12.33;;;10.00;99.90;;;;;;5081973;28;20228;-77
2022/04/24 01:41:58;;;;;;;15.47;12.33;;;10.10;99.90;;;;;;5079234;28;20210;-78
2022/04/24 01:44:25;;;;;;;16.50;13.27;;;10.10;99.90;;;;;;5106117;22;20221;-78
2022/04/24 01:46:53;;;;;;;19.47;15.30;;;10.10;99.90;;;;;;5078181;28;20213;-77
2022/04/24 01:49:20;;;;;;;18.43;13.87;;;10.10;99.90;;;;;;5077719;28;20196;-77
2022/04/24 01:51:48;;;;;;;18.53;14.47;;;10.20;99.90;;;;;;5076105;28;20197;-77
2022/04/24 01:54:15;;;;;;;19.50;14.80;;;10.20;99.90;;;;;;5076457;28;20262;-78
2022/04/24 01:56:44;;;;;;;16.17;13.87;;;10.20;99.90;;;;;;5072880;28;20193;-77
2022/04/24 01:59:11;;;;;;;20.13;16.13;;;10.20;99.90;;;;;;5090261;28;20304;-77
2022/04/24 02:01:38;;;;;;;17.50;15.47;;;10.20;99.90;;;;;;5089920;28;20239;-77
2022/04/24 02:04:05;;;;;;;18.47;15.20;;;10.20;99.90;;;;;;5075041;28;20216;-77
2022/04/24 02:06:32;;;;;;;17.77;15.87;;;10.20;99.90;;;;;;5077817;28;20200;-77
2022/04/24 02:08:59;;;;;;;16.73;14.73;;;10.20;99.90;;;;;;5077451;28;20200;-77
2022/04/24 02:11:26;;;;;;;18.37;15.73;;;10.10;99.90;;;;;;5094473;28;20205;-77
2022/04/24 02:13:54;;;;;;;18.93;15.37;;;10.10;99.90;;;;;;5073757;28;20251;-78
2022/04/24 02:16:21;;;;;;;21.03;17.43;;;10.10;99.90;;;;;;5077421;28;20194;-78
2022/04/24 02:18:48;;;;;;;21.50;17.17;;;10.10;99.90;;;;;;5077336;28;20213;-77
2022/04/24 02:21:15;;;;;;;19.03;15.83;;;10.10;99.90;;;;;;5077300;28;20201;-77
2022/04/24 02:23:42;;;;;;;16.50;14.10;;;10.10;99.90;;;;;;5077661;28;20224;-77
2022/04/24 02:26:09;;;;;;;20.97;17.40;;;10.10;99.90;;;;;;5094998;28;20198;-77
2022/04/24 02:28:36;;;;;;;20.47;16.20;;;10.10;99.90;;;;;;5076132;28;20208;-78
2022/04/24 02:31:04;;;;;;;19.43;16.60;;;10.00;99.90;;;;;;5071018;28;20194;-77
2022/04/24 02:33:31;;;;;;;24.23;18.67;;;10.00;99.90;;;;;;5076602;28;20221;-77
2022/04/24 02:35:58;;;;;;;22.17;17.60;;;10.00;99.90;;;;;;5077826;28;20216;-77
2022/04/24 02:38:25;;;;;;;23.77;18.43;;;10.00;99.90;;;;;;5077539;28;20730;-78
2022/04/24 02:40:52;;;;;;;24.60;20.27;;;9.90;99.90;;;;;;5077366;28;20218;-77
2022/04/24 02:43:19;;;;;;;25.50;20.80;;;9.80;99.90;;;;;;5076960;28;20202;-77
2022/04/24 02:45:46;;;;;;;25.00;20.00;;;9.80;99.90;;;;;;5094167;28;20289;-77
2022/04/24 02:48:15;;;;;;;24.57;18.07;;;9.80;99.90;;;;;;5077413;28;20647;-77
2022/04/24 02:50:42;;;;;;;20.83;16.97;;;9.80;99.90;;;;;;5094424;28;20277;-77
2022/04/24 02:53:09;;;;;;;21.63;17.57;;;9.70;99.90;;;;;;5068570;28;20292;-78
2022/04/24 02:55:36;;;;;;;27.27;20.17;;;9.80;99.90;;;;;;5076585;28;20205;-78
2022/04/24 02:58:03;;;;;;;25.10;20.10;;;9.80;99.90;;;;;;5076939;28;20657;-78
2022/04/24 03:00:39;;;;;;;25.77;17.73;;;9.70;99.90;;;;;;5066269;28;20222;-78
2022/04/24 03:03:07;;;;;;;28.03;20.43;;;9.70;99.90;;;;;;5072448;28;20209;-78
2022/04/24 03:05:36;;;;;;;26.27;19.83;;;9.70;99.90;;;;;;5073182;28;20662;-81
2022/04/24 03:08:03;;;;;;;25.60;19.23;;;9.80;99.90;;;;;;5069264;28;20201;-78
2022/04/24 03:10:30;;;;;;;23.40;18.73;;;9.80;99.90;;;;;;5078422;28;20277;-75
2022/04/24 03:12:57;;;;;;;21.53;16.73;;;9.90;99.90;;;;;;5075786;28;20205;-78
2022/04/24 03:15:24;;;;;;;24.47;17.63;;;9.90;99.90;;;;;;5076708;28;20222;-77
2022/04/24 03:17:54;;;;;;;22.57;17.13;;;9.90;99.90;;;;;;5077615;28;20279;-77
2022/04/24 03:20:24;;;;;;;23.97;19.67;;;9.90;99.90;;;;;;5084856;28;20262;-77
2022/04/24 03:22:53;;;;;;;22.90;18.43;;;9.90;99.90;;;;;;5094021;28;20243;-78
2022/04/24 03:25:20;;;;;;;22.03;18.27;;;10.00;99.90;;;;;;5091579;28;20217;-78
2022/04/24 03:27:47;;;;;;;23.33;15.93;;;9.90;99.90;;;;;;5090050;28;21343;-78
2022/04/24 03:30:14;;;;;;;21.67;17.50;;;9.90;99.90;;;;;;5072737;28;20558;-78
2022/04/24 03:32:41;;;;;;;23.27;17.77;;;10.00;99.90;;;;;;5078512;28;20585;-78
2022/04/24 03:35:11;;;;;;;27.00;20.27;;;10.00;99.90;;;;;;5070952;28;20245;-78
2022/04/24 03:37:38;;;;;;;23.97;18.60;;;10.00;99.90;;;;;;5067065;28;20202;-78
2022/04/24 03:40:08;;;;;;;24.10;19.80;;;10.00;99.90;;;;;;5075700;28;20228;-77
2022/04/24 03:42:36;;;;;;;23.03;17.80;;;9.90;99.90;;;;;;5078048;28;20232;-77
2022/04/24 03:45:06;;;;;;;21.17;17.10;;;9.90;99.90;;;;;;5078869;28;20234;-77
2022/04/24 03:47:33;;;;;;;23.03;17.47;;;9.90;99.90;;;;;;5079790;28;20194;-80
2022/04/24 03:50:00;;;;;;;26.33;20.40;;;9.90;99.90;;;;;;5073992;28;20190;-77
2022/04/24 03:52:27;;;;;;;26.53;20.03;;;9.90;99.90;;;;;;5076289;28;20208;-77
2022/04/24 03:54:57;;;;;;;27.40;20.50;;;9.90;99.90;;;;;;5061601;28;20218;-77
2022/04/24 03:57:25;;;;;;;28.80;22.53;;;10.00;99.90;;;;;;5077436;28;20204;-78
2022/04/24 03:59:52;;;;;;;29.57;21.87;;;10.00;99.90;;;;;;5092850;28;20210;-80
2022/04/24 04:02:19;;;;;;;28.30;21.43;;;10.00;99.90;;;;;;5079383;28;20616;-76
2022/04/24 04:04:46;;;;;;;25.13;19.83;;;10.00;99.90;;;;;;5078047;28;20213;-77
2022/04/24 04:07:13;;;;;;;28.47;20.90;;;9.90;99.90;;;;;;5074283;28;20233;-78
2022/04/24 04:09:40;;;;;;;27.70;21.33;;;9.90;99.90;;;;;;5094063;28;20190;-78
2022/04/24 04:12:09;;;;;;;32.90;24.40;;;9.90;99.90;;;;;;5073643;28;20205;-78
2022/04/24 04:14:37;;;;;;;30.50;22.60;;;9.90;99.90;;;;;;5095967;28;20285;-77
2022/04/24 04:17:05;;;;;;;21.27;16.40;;;9.80;99.90;;;;;;5073243;28;20194;-78
2022/04/24 04:19:32;;;;;;;12.27;8.93;;;9.80;99.90;;;;;;5075662;28;20213;-78
2022/04/24 04:21:59;;;;;;;10.27;7.70;;;9.60;99.90;;;;;;5076748;28;20233;-78
2022/04/24 04:24:26;;;;;;;10.43;7.97;;;9.50;99.90;;;;;;5072070;28;20698;-78
2022/04/24 04:26:53;;;;;;;7.43;6.07;;;9.40;99.90;;;;;;5077451;28;20204;-77
2022/04/24 04:29:20;;;;;;;8.43;6.50;;;9.30;99.90;;;;;;5072229;28;20230;-77
2022/04/24 04:31:48;;;;;;;8.77;6.83;;;9.30;99.90;;;;;;5068503;28;20215;-78
2022/04/24 04:34:15;;;;;;;9.77;5.03;;;9.30;99.90;;;;;;5067134;28;20317;-78
2022/04/24 04:36:42;;;;;;;5.70;5.17;;;9.30;99.90;;;;;;5069668;28;20226;-77
2022/04/24 04:39:09;;;;;;;6.73;6.13;;;9.20;99.90;;;;;;5069733;28;20198;-77
2022/04/24 04:41:36;;;;;;;5.23;4.83;;;9.20;99.90;;;;;;5073476;28;20644;-77
2022/04/24 04:44:04;;;;;;;9.63;4.63;;;9.20;99.90;;;;;;5078203;28;20244;-77
2022/04/24 04:46:31;;;;;;;4.53;4.13;;;9.10;99.90;;;;;;5076154;28;20225;-77
2022/04/24 04:48:59;;;;;;;6.87;5.67;;;9.10;99.90;;;;;;5079472;28;20200;-78
2022/04/24 04:51:26;;;;;;;3.53;2.90;;;9.10;99.90;;;;;;5072360;28;20201;-77
2022/04/24 04:53:55;;;;;;;4.03;3.77;;;9.10;99.90;;;;;;5069067;28;20221;-78
2022/04/24 04:56:23;;;;;;;5.43;5.03;;;9.10;99.90;;;;;;5070416;28;20194;-77
2022/04/24 04:58:49;;;;;;;4.93;4.63;;;9.00;99.90;;;;;;5082637;28;20296;-78
2022/04/24 05:01:16;;;;;;;3.10;2.53;;;9.00;99.90;;;;;;5085639;28;20216;-77
2022/04/24 05:03:43;;;;;;;4.83;4.50;;;9.00;99.90;;;;;;5073752;28;20222;-77
2022/04/24 05:06:12;;;;;;;5.20;4.90;;;9.00;99.90;;;;;;5079031;28;20310;-78
2022/04/24 05:08:39;;;;;;;4.23;4.03;;;9.00;99.90;;;;;;5075314;28;20202;-77
2022/04/24 05:11:06;;;;;;;2.43;2.33;;;8.90;99.90;;;;;;5073402;28;20520;-77
2022/04/24 05:13:33;;;;;;;2.50;2.40;;;8.90;99.90;;;;;;5079398;28;20443;-78
2022/04/24 05:16:00;;;;;;;2.13;2.03;;;8.80;99.90;;;;;;5078339;28;20201;-78
2022/04/24 05:18:27;;;;;;;2.00;1.90;;;8.80;99.90;;;;;;5077830;28;20738;-77
2022/04/24 05:20:55;;;;;;;2.20;2.10;;;8.80;99.90;;;;;;5073533;28;20289;-77
2022/04/24 05:23:24;;;;;;;3.27;2.37;;;8.80;99.90;;;;;;5071909;28;20286;-77
2022/04/24 05:25:51;;;;;;;4.63;4.23;;;8.70;99.90;;;;;;5078081;28;20210;-78
2022/04/24 05:28:18;;;;;;;4.60;4.40;;;8.70;99.90;;;;;;5074502;28;20205;-78
2022/04/24 05:30:45;;;;;;;5.80;5.40;;;8.60;99.90;;;;;;5077010;28;20196;-77
2022/04/24 05:33:17;;;;;;;3.73;3.57;;;8.60;99.90;;;;;;5078628;28;20203;-78
2022/04/24 05:35:44;;;;;;;2.13;2.00;;;8.50;99.90;;;;;;5081946;28;20236;-79
2022/04/24 05:38:11;;;;;;;5.63;5.27;;;8.50;99.90;;;;;;5075606;28;20662;-79
2022/04/24 05:40:40;;;;;;;2.50;2.40;;;8.50;99.90;;;;;;5072696;28;20498;-78
2022/04/24 05:43:07;;;;;;;2.77;2.03;;;8.50;99.90;;;;;;5073575;28;20237;-78
2022/04/24 05:45:34;;;;;;;5.00;4.70;;;8.50;99.90;;;;;;5077174;28;20204;-78
2022/04/24 05:48:01;;;;;;;5.20;5.00;;;8.50;99.90;;;;;;5075829;28;20197;-78
2022/04/24 05:50:28;;;;;;;5.50;5.20;;;8.50;99.90;;;;;;5084116;28;20209;-77
2022/04/24 05:52:56;;;;;;;6.47;6.17;;;8.50;99.90;;;;;;5076369;28;20339;-78
2022/04/24 05:55:23;;;;;;;4.90;4.70;;;8.40;99.90;;;;;;5070195;28;20311;-78
2022/04/24 05:57:51;;;;;;;4.80;4.47;;;8.40;99.90;;;;;;5077065;28;20207;-78
2022/04/24 06:00:19;;;;;;;5.30;5.00;;;8.40;99.90;;;;;;5065279;28;20710;-78
2022/04/24 06:02:46;;;;;;;4.57;4.37;;;8.40;99.90;;;;;;5070646;28;20220;-79
2022/04/24 06:05:13;;;;;;;4.07;3.87;;;8.40;99.90;;;;;;5075747;28;20293;-77
2022/04/24 06:07:41;;;;;;;4.40;4.20;;;8.40;99.90;;;;;;5076516;28;20295;-78
2022/04/24 06:10:10;;;;;;;5.20;4.90;;;8.40;99.90;;;;;;5080571;28;20197;-77
2022/04/24 06:12:45;;;;;;;4.80;4.40;;;8.40;99.90;;;;;;5069426;28;20276;-79
2022/04/24 06:15:15;;;;;;;4.10;3.90;;;8.40;99.90;;;;;;5074762;28;20246;-78
2022/04/24 06:17:43;;;;;;;3.60;3.40;;;8.40;99.90;;;;;;5077693;28;20193;-79
2022/04/24 06:20:11;;;;;;;3.97;3.67;;;8.40;99.90;;;;;;5079408;28;20228;-80
2022/04/24 06:22:45;;;;;;;3.63;3.43;;;8.40;99.90;;;;;;5081143;28;20207;-79
2022/04/24 06:25:16;;;;;;;3.80;3.60;;;8.40;99.90;;;;;;5079651;28;20735;-81
2022/04/24 06:27:43;;;;;;;4.00;3.77;;;8.40;99.90;;;;;;5078403;28;20208;-79
2022/04/24 06:30:11;;;;;;;3.80;3.60;;;8.40;99.90;;;;;;5073976;28;20201;-80
2022/04/24 06:32:41;;;;;;;2.60;2.50;;;8.50;99.90;;;;;;5078166;28;20212;-80
2022/04/24 06:35:09;;;;;;;2.20;2.10;;;8.50;99.90;;;;;;5070616;28;20217;-80
2022/04/24 06:37:37;;;;;;;2.43;2.33;;;8.50;99.90;;;;;;5088578;28;20206;-80
2022/04/24 06:40:04;;;;;;;2.67;2.00;;;8.40;99.90;;;;;;5076690;28;20228;-80
2022/04/24 06:42:31;;;;;;;2.10;2.00;;;8.40;99.90;;;;;;5077295;28;20236;-80
2022/04/24 06:44:58;;;;;;;2.20;2.10;;;8.50;99.90;;;;;;5063629;28;20331;-82
2022/04/24 06:47:27;;;;;;;2.17;2.03;;;8.50;99.90;;;;;;5076091;28;20284;-76
2022/04/24 06:49:55;;;;;;;2.10;2.00;;;8.50;99.90;;;;;;5067944;28;20280;-77
2022/04/24 06:52:22;;;;;;;2.03;1.93;;;8.50;99.90;;;;;;5082367;28;20205;-77
2022/04/24 06:54:49;;;;;;;2.20;2.10;;;8.50;99.90;;;;;;5076224;28;20255;-77
2022/04/24 06:57:16;;;;;;;2.50;2.30;;;8.50;99.90;;;;;;5074884;28;20198;-77
2022/04/24 06:59:43;;;;;;;2.20;2.10;;;8.50;99.90;;;;;;5075032;28;20208;-78
2022/04/24 07:02:10;;;;;;;5.53;5.17;;;8.60;99.90;;;;;;5079577;28;20212;-81
2022/04/24 07:04:37;;;;;;;2.60;2.40;;;8.60;99.90;;;;;;5088608;28;20217;-77
2022/04/24 07:07:06;;;;;;;2.43;2.20;;;8.60;99.90;;;;;;5088491;28;20285;-78
2022/04/24 07:09:33;;;;;;;3.47;2.20;;;8.60;99.90;;;;;;5083248;28;20194;-81
2022/04/24 07:12:00;;;;;;;4.40;4.20;;;8.60;99.90;;;;;;5085652;28;20193;-77
2022/04/24 07:14:27;;;;;;;5.20;4.90;;;8.70;99.90;;;;;;5086263;28;20280;-78
2022/04/24 07:16:54;;;;;;;4.10;3.90;;;8.70;99.90;;;;;;5071913;28;20235;-77
2022/04/24 07:19:21;;;;;;;4.47;4.27;;;8.80;99.90;;;;;;5068274;28;20208;-77
2022/04/24 07:21:50;;;;;;;4.40;4.20;;;8.80;99.90;;;;;;5072505;28;20217;-77
2022/04/24 07:24:18;;;;;;;3.30;3.20;;;8.80;99.90;;;;;;5068865;28;20221;-77
2022/04/24 07:26:45;;;;;;;4.60;4.40;;;8.80;99.90;;;;;;5066236;28;20203;-78
2022/04/24 07:29:12;;;;;;;2.40;2.30;;;8.90;99.90;;;;;;5083051;28;20636;-77
2022/04/24 07:31:39;;;;;;;1.80;1.80;;;8.90;99.90;;;;;;5077217;28;20288;-77
2022/04/24 07:34:05;;;;;;;2.40;2.20;;;8.90;99.90;;;;;;5069836;28;20221;-76
2022/04/24 07:36:32;;;;;;;3.27;3.03;;;8.90;99.90;;;;;;5075179;28;20208;-77
2022/04/24 07:38:59;;;;;;;4.40;4.20;;;8.90;99.90;;;;;;5074302;28;20288;-75
2022/04/24 07:41:28;;;;;;;4.50;4.20;;;8.90;99.90;;;;;;5073361;28;20210;-79
2022/04/24 07:43:55;;;;;;;4.10;3.90;;;8.90;99.90;;;;;;5112145;22;21602;-78
2022/04/24 07:46:23;;;;;;;6.07;5.57;;;8.90;99.90;;;;;;5095916;28;20217;-77
2022/04/24 07:48:50;;;;;;;5.13;4.90;;;8.90;99.90;;;;;;5092475;27;20232;-78
2022/04/24 07:51:17;;;;;;;4.90;4.60;;;8.90;99.90;;;;;;5110792;27;20292;-78
2022/04/24 07:53:47;;;;;;;2.57;2.37;;;9.00;99.90;;;;;;5113515;27;20253;-78
2022/04/24 07:56:14;;;;;;;5.67;5.27;;;9.00;99.90;;;;;;5106256;27;20193;-78
2022/04/24 07:58:43;;;;;;;5.03;4.63;;;9.00;99.90;;;;;;5095767;28;20193;-78
2022/04/24 08:01:11;;;;;;;6.20;5.80;;;9.10;99.90;;;;;;5080067;28;20265;-78
2022/04/24 08:03:38;;;;;;;5.93;5.50;;;9.10;99.90;;;;;;5080910;28;20661;-78
2022/04/24 08:06:05;;;;;;;2.40;2.30;;;9.00;99.90;;;;;;5090059;28;20723;-78
2022/04/24 08:08:32;;;;;;;2.30;2.20;;;9.10;99.90;;;;;;5091070;28;20674;-78
2022/04/24 08:11:00;;;;;;;5.70;5.40;;;9.10;99.90;;;;;;5095115;28;20189;-78
2022/04/24 08:13:27;;;;;;;6.57;6.17;;;9.20;99.90;;;;;;5096266;28;20209;-77
2022/04/24 08:15:57;;;;;;;6.37;5.97;;;9.20;99.90;;;;;;5095292;28;20224;-78
2022/04/24 08:18:24;;;;;;;5.67;5.27;;;9.20;99.90;;;;;;5088154;28;20645;-78
2022/04/24 08:20:51;;;;;;;6.67;6.20;;;9.20;99.90;;;;;;5099273;27;20221;-78
2022/04/24 08:23:18;;;;;;;6.07;5.67;;;9.30;99.90;;;;;;5092002;28;20207;-78
2022/04/24 08:25:46;;;;;;;5.00;4.70;;;9.40;99.90;;;;;;5085104;28;20241;-78
2022/04/24 08:28:13;;;;;;;5.20;4.90;;;9.40;99.90;;;;;;5089798;28;20197;-78
2022/04/24 08:30:42;;;;;;;2.77;2.57;;;9.40;99.90;;;;;;5089701;28;20201;-78
2022/04/24 08:33:11;;;;;;;6.10;5.43;;;9.50;99.90;;;;;;5087990;28;20204;-78
2022/04/24 08:35:39;;;;;;;6.20;5.90;;;9.50;99.90;;;;;;5087302;28;20225;-78
2022/04/24 08:38:06;;;;;;;5.77;5.27;;;9.40;99.90;;;;;;5081833;28;20251;-78
2022/04/24 08:40:33;;;;;;;7.17;6.70;;;9.50;99.90;;;;;;5093496;28;20197;-78
2022/04/24 08:43:01;;;;;;;2.30;2.20;;;9.50;99.90;;;;;;5091685;28;20200;-78
2022/04/24 08:45:29;;;;;;;2.00;1.90;;;9.50;99.90;;;;;;5092357;28;20637;-78
2022/04/24 08:47:57;;;;;;;3.13;2.93;;;9.60;99.90;;;;;;5086383;28;20210;-78
2022/04/24 08:50:28;;;;;;;2.43;2.20;;;9.50;99.90;;;;;;5087763;28;20266;-78
2022/04/24 08:52:56;;;;;;;5.13;4.73;;;9.60;99.90;;;;;;5088753;28;20200;-79
2022/04/24 08:55:26;;;;;;;4.87;4.57;;;9.60;99.90;;;;;;5089757;28;20213;-78
2022/04/24 08:57:53;;;;;;;5.87;5.47;;;9.60;99.90;;;;;;5085041;28;20192;-79
2022/04/24 09:00:21;;;;;;;2.93;2.70;;;9.70;99.90;;;;;;5086483;28;20201;-78
2022/04/24 09:02:48;;;;;;;3.30;3.00;;;9.70;99.90;;;;;;5085905;28;20216;-78
2022/04/24 09:05:15;;;;;;;3.40;3.20;;;9.80;99.90;;;;;;5093222;28;20217;-78
2022/04/24 09:07:45;;;;;;;6.13;5.73;;;9.90;99.90;;;;;;5103724;28;20243;-78
2022/04/24 09:10:12;;;;;;;2.30;2.20;;;9.90;99.90;;;;;;5088765;28;20666;-78
2022/04/24 09:12:40;;;;;;;3.63;3.40;;;10.00;99.90;;;;;;5079258;28;20554;-77
2022/04/24 09:15:08;;;;;;;2.53;2.43;;;10.00;99.90;;;;;;5090361;28;20232;-77
2022/04/24 09:17:36;;;;;;;4.43;4.20;;;10.10;99.90;;;;;;5090598;28;20270;-79
2022/04/24 09:20:17;;;;;;;2.53;2.40;;;10.10;99.90;;;;;;5114351;27;20686;-77
2022/04/24 09:22:45;;;;;;;5.20;4.97;;;10.20;99.90;;;;;;5090568;28;20571;-78
2022/04/24 09:25:13;;;;;;;2.20;2.10;;;10.20;99.90;;;;;;5096039;28;20228;-78
2022/04/24 09:27:40;;;;;;;4.90;4.60;;;10.20;99.90;;;;;;5105810;27;20198;-78
2022/04/24 09:30:11;;;;;;;3.40;3.20;;;10.30;99.90;;;;;;5102445;27;20631;-78
2022/04/24 09:32:47;;;;;;;5.27;4.90;;;10.30;99.90;;;;;;5098172;28;20185;-79
2022/04/24 09:35:28;;;;;;;2.23;2.13;;;10.30;99.90;;;;;;5081533;28;20300;-78
2022/04/24 09:38:13;;;;;;;2.60;2.30;;;10.40;99.90;;;;;;5085587;28;20244;-78
2022/04/24 09:40:46;;;;;;;3.93;3.73;;;10.50;99.90;;;;;;5080159;28;20221;-78
2022/04/24 09:43:14;;;;;;;4.27;4.00;;;10.50;99.90;;;;;;5102546;28;20185;-78
2022/04/24 09:45:42;;;;;;;3.20;3.03;;;10.50;99.90;;;;;;5121124;27;20214;-76
2022/04/24 09:48:13;;;;;;;3.10;2.90;;;10.40;99.90;;;;;;5123246;27;20189;-77
2022/04/24 09:50:41;;;;;;;4.20;3.90;;;10.40;99.90;;;;;;5100190;27;20529;-76
2022/04/24 09:53:14;;;;;;;3.20;3.00;;;10.40;99.90;;;;;;5083048;28;20290;-76
2022/04/24 09:55:43;;;;;;;2.50;2.30;;;10.40;99.90;;;;;;5097712;28;20655;-76
2022/04/24 09:58:11;;;;;;;2.30;2.20;;;10.40;99.90;;;;;;5091399;28;20198;-76
2022/04/24 10:00:38;;;;;;;2.27;2.17;;;10.40;99.90;;;;;;5078924;28;20206;-76
2022/04/24 10:03:06;;;;;;;2.30;2.20;;;10.40;99.90;;;;;;5103306;28;20315;-76
2022/04/24 10:05:33;;;;;;;2.80;2.10;;;10.40;99.90;;;;;;5099836;28;20657;-76
2022/04/24 10:08:02;;;;;;;4.60;2.40;;;10.50;99.90;;;;;;5100388;28;20191;-76
2022/04/24 10:10:30;;;;;;;3.90;2.30;;;10.50;99.90;;;;;;5085272;28;20383;-76
2022/04/24 10:13:01;;;;;;;2.00;1.90;;;10.50;99.90;;;;;;5085481;28;20193;-76
2022/04/24 10:15:30;;;;;;;2.23;2.03;;;10.50;99.90;;;;;;5085341;28;20275;-76
2022/04/24 10:18:19;;;;;;;2.70;2.60;;;10.50;99.90;;;;;;5084854;28;20714;-75
2022/04/24 10:21:02;;;;;;;3.13;2.63;;;10.50;99.90;;;;;;5099328;28;20194;-76
2022/04/24 10:23:36;;;;;;;3.70;3.40;;;10.60;99.90;;;;;;5099165;28;20193;-76
2022/04/24 10:26:04;;;;;;;2.60;2.50;;;10.60;99.90;;;;;;5111197;28;20243;-76
2022/04/24 10:28:38;;;;;;;2.30;2.20;;;10.70;99.90;;;;;;5104931;28;20275;-76
2022/04/24 10:31:07;;;;;;;2.57;2.37;;;10.70;99.90;;;;;;5097548;28;20194;-77
2022/04/24 10:33:36;;;;;;;3.40;2.67;;;10.70;99.90;;;;;;5094538;28;20213;-76
2022/04/24 10:36:11;;;;;;;2.60;2.50;;;10.80;99.90;;;;;;5114722;27;20279;-76
2022/04/24 10:38:48;;;;;;;3.00;2.70;;;10.80;99.90;;;;;;5111212;27;20201;-76
2022/04/24 10:41:18;;;;;;;3.40;3.20;;;10.80;99.90;;;;;;5094935;28;20198;-76
2022/04/24 10:43:48;;;;;;;3.27;3.00;;;10.90;99.90;;;;;;5089340;28;20195;-76
2022/04/24 10:46:25;;;;;;;5.40;3.43;;;10.90;99.90;;;;;;5090190;28;20197;-76
2022/04/24 10:48:53;;;;;;;3.97;3.00;;;10.90;99.90;;;;;;5080312;28;20675;-77
2022/04/24 10:51:30;;;;;;;2.50;2.40;;;11.00;99.90;;;;;;5088403;28;20297;-76
2022/04/24 10:53:59;;;;;;;2.83;2.63;;;11.10;99.90;;;;;;5096902;27;20222;-76
2022/04/24 10:56:29;;;;;;;2.73;2.40;;;11.20;99.90;;;;;;5084132;28;20219;-77
2022/04/24 10:59:07;;;;;;;2.70;2.50;;;11.20;99.90;;;;;;5086396;28;20198;-77
2022/04/24 11:01:35;;;;;;;2.50;2.40;;;11.30;99.90;;;;;;5084665;28;20210;-77
2022/04/24 11:04:07;;;;;;;2.20;2.10;;;11.40;99.90;;;;;;5088431;28;20227;-76
2022/04/24 11:06:34;;;;;;;2.37;2.20;;;11.50;99.90;;;;;;5099150;28;20664;-77
2022/04/24 11:09:07;;;;;;;2.33;2.23;;;11.70;99.90;;;;;;5091019;28;20561;-76
2022/04/24 11:11:45;;;;;;;3.13;2.57;;;11.80;99.90;;;;;;5088080;28;20199;-76
2022/04/24 11:14:12;;;;;;;3.90;3.60;;;11.90;99.90;;;;;;5092720;28;20226;-76
2022/04/24 11:16:39;;;;;;;3.63;2.90;;;12.10;99.90;;;;;;5096157;28;20203;-77
2022/04/24 11:19:06;;;;;;;2.67;2.47;;;12.30;99.90;;;;;;5089082;28;20293;-76
2022/04/24 11:21:41;;;;;;;4.17;3.80;;;12.50;99.90;;;;;;5095883;28;20197;-76
2022/04/24 11:24:08;;;;;;;3.00;2.80;;;12.70;99.90;;;;;;5091638;28;20244;-76
2022/04/24 11:26:37;;;;;;;3.43;3.23;;;12.80;99.90;;;;;;5093497;28;20685;-76
2022/04/24 11:29:09;;;;;;;4.80;4.50;;;12.90;99.90;;;;;;5083132;28;20232;-76
2022/04/24 11:31:47;;;;;;;3.40;3.10;;;13.00;99.90;;;;;;5078362;28;20232;-76
2022/04/24 11:34:14;;;;;;;4.73;4.43;;;13.10;99.90;;;;;;5077522;28;20217;-77
2022/04/24 11:36:41;;;;;;;2.40;2.20;;;13.00;99.90;;;;;;5090745;28;20208;-76
2022/04/24 11:39:08;;;;;;;5.23;4.93;;;13.00;99.90;;;;;;5093822;28;20194;-76
2022/04/24 11:41:38;;;;;;;4.07;3.73;;;12.90;99.90;;;;;;5085498;28;20285;-77
2022/04/24 11:50:13;;;;;;;2.67;2.47;;;12.70;99.90;;;;;;5080632;28;20229;-78
2022/04/24 11:52:26;;;;;;;2.80;2.63;;;12.40;99.90;;;;;;5064542;28;20193;-78
2022/04/24 11:54:53;;;;;;;6.13;5.73;;;12.40;99.90;;;;;;5094585;28;20308;-77
2022/04/24 11:57:21;;;;;;;4.50;4.20;;;12.50;99.90;;;;;;5094264;28;20631;-81
2022/04/24 11:59:55;;;;;;;4.30;3.93;;;12.50;99.90;;;;;;5101081;27;20200;-79
2022/04/24 12:02:25;;;;;;;3.87;3.67;;;12.60;99.90;;;;;;5100726;27;20219;-79
2022/04/24 12:04:53;;;;;;;2.70;2.50;;;12.80;99.90;;;;;;5105374;27;20224;-80
2022/04/24 12:07:21;;;;;;;5.13;4.83;;;13.00;99.90;;;;;;5098284;27;20227;-79
2022/04/24 12:10:01;;;;;;;6.60;6.20;;;13.20;99.90;;;;;;5095924;28;20284;-79
2022/04/24 12:12:29;;;;;;;8.57;8.07;;;13.40;99.90;;;;;;5092765;28;20197;-78
2022/04/24 12:14:59;;;;;;;8.07;7.47;;;13.60;99.90;;;;;;5096480;28;20232;-79
2022/04/24 12:17:28;;;;;;;7.10;6.57;;;13.70;99.90;;;;;;5105917;28;20202;-79
2022/04/24 12:19:59;;;;;;;7.20;6.80;;;13.80;99.90;;;;;;5100732;28;20210;-80
2022/04/24 12:22:32;;;;;;;5.70;5.30;;;13.90;99.90;;;;;;5100575;28;20282;-79
2022/04/24 12:25:08;;;;;;;7.53;7.03;;;14.00;99.90;;;;;;5084875;28;20730;-80
2022/04/24 12:27:37;;;;;;;7.07;6.63;;;13.90;99.90;;;;;;5088763;28;20684;-79
2022/04/24 12:30:07;;;;;;;6.63;6.30;;;13.90;99.90;;;;;;5093115;28;20190;-78
2022/04/24 12:32:36;;;;;;;6.27;5.87;;;13.90;99.90;;;;;;5101888;28;20185;-79
2022/04/24 12:35:03;;;;;;;7.17;6.67;;;13.90;99.90;;;;;;5093422;28;20310;-80
2022/04/24 12:37:35;;;;;;;5.83;5.53;;;13.60;99.90;;;;;;5090288;28;20196;-77
2022/04/24 12:40:02;;;;;;;6.50;6.10;;;13.50;99.90;;;;;;5089891;28;20200;-77
2022/04/24 12:42:30;;;;;;;6.80;6.40;;;13.40;99.90;;;;;;5084079;28;20307;-77
2022/04/24 12:45:00;;;;;;;7.27;6.77;;;13.40;99.90;;;;;;5087766;28;20236;-77
2022/04/24 12:47:27;;;;;;;4.97;4.67;;;13.20;99.90;;;;;;5084706;28;20447;-77
2022/04/24 12:49:54;;;;;;;6.03;5.73;;;13.10;99.90;;;;;;5084673;28;20675;-77
2022/04/24 12:52:23;;;;;;;5.63;5.33;;;13.10;99.90;;;;;;5096700;27;20196;-77
2022/04/24 12:54:51;;;;;;;6.20;5.80;;;13.10;99.90;;;;;;5099016;28;20250;-76
2022/04/24 12:57:18;;;;;;;6.10;5.80;;;13.20;99.90;;;;;;5100616;27;20203;-76